Time,TemperatureF,DewpointF,PressureIn,WindDirection,WindDirectionDegrees,WindSpeedMPH,WindSpeedGustMPH,Humidity,HourlyPrecipIn,Conditions,Clouds,dailyrainin,SolarRadiationWatts/m^2,SoftwareType,DateUTC
2013-01-17 00:04:00,37.0,30.5,28.84,WSW,238,0.0,0.0,77,0.00,,,0.00,0,LWC V2.10 B1813,2013-01-17 08:04:00,
2013-01-17 00:09:00,45.6,38.8,28.84,WSW,256,0.0,0.0,77,0.00,,,0.00,0,LWC V2.10 B1813,2013-01-17 08:09:00,
2013-01-17 00:14:00,45.7,38.9,28.84,WSW,256,1.0,1.0,77,0.00,,,0.00,0,LWC V2.10 B1813,2013-01-17 08:14:00,
2013-01-17 00:19:00,37.2,30.3,28.84,WSW,238,0.0,0.0,76,0.00,,,0.00,0,LWC V2.10 B1813,2013-01-17 08:19:00,
2013-01-17 00:25:00,36.5,30.0,28.84,WSW,238,0.0,0.0,77,0.00,,,0.00,0,LWC V2.10 B1813,2013-01-17 08:25:00,
2013-01-17 00:30:00,36.5,30.0,28.84,WSW,238,0.0,0.0,77,0.00,,,0.00,0,LWC V2.10 B1813,2013-01-17 08:30:00,
2013-01-17 00:35:00,36.2,30.0,28.84,WSW,238,0.0,0.0,78,0.00,,,0.00,0,LWC V2.10 B1813,2013-01-17 08:35:00,
2013-01-17 00:40:00,35.7,29.8,28.84,WSW,238,0.0,0.0,79,0.00,,,0.00,0,LWC V2.10 B1813,2013-01-17 08:40:00,
2013-01-17 00:45:00,35.4,29.9,28.84,WSW,238,0.0,0.0,80,0.00,,,0.00,0,LWC V2.10 B1813,2013-01-17 08:45:00,
2013-01-17 00:50:00,35.4,29.9,28.84,WSW,238,0.0,0.0,80,0.00,,,0.00,0,LWC V2.10 B1813,2013-01-17 08:50:00,
2013-01-17 00:55:00,35.3,29.8,28.84,WSW,238,0.0,0.0,80,0.00,,,0.00,0,LWC V2.10 B1813,2013-01-17 08:55:00,
2013-01-17 01:00:00,35.2,29.7,28.84,WSW,238,0.0,0.0,80,0.00,,,0.00,0,LWC V2.10 B1813,2013-01-17 09:00:00,
2013-01-17 01:05:00,35.4,29.9,28.84,WSW,238,0.0,0.0,80,0.00,,,0.00,0,LWC V2.10 B1813,2013-01-17 09:05:00,
2013-01-17 01:10:00,35.3,29.8,28.84,WSW,238,0.0,0.0,80,0.00,,,0.00,0,LWC V2.10 B1813,2013-01-17 09:10:00,
2013-01-17 01:15:00,35.5,30.0,28.84,WSW,238,0.0,0.0,80,0.00,,,0.00,0,LWC V2.10 B1813,2013-01-17 09:15:00,
2013-01-17 01:20:00,35.2,29.7,28.84,WSW,238,0.0,0.0,80,0.00,,,0.00,0,LWC V2.10 B1813,2013-01-17 09:20:00,
2013-01-17 01:25:00,35.1,29.9,28.84,WSW,238,0.0,0.0,81,0.00,,,0.00,0,LWC V2.10 B1813,2013-01-17 09:25:00,
2013-01-17 01:30:00,35.2,29.7,28.84,WSW,238,0.0,0.0,80,0.00,,,0.00,0,LWC V2.10 B1813,2013-01-17 09:30:00,
2013-01-17 01:35:00,35.1,29.6,28.84,WSW,238,0.0,0.0,80,0.00,,,0.00,0,LWC V2.10 B1813,2013-01-17 09:35:00,
2013-01-17 01:40:00,34.7,29.2,28.84,WSW,238,0.0,0.0,80,0.00,,,0.00,0,LWC V2.10 B1813,2013-01-17 09:40:00,
2013-01-17 01:45:00,34.6,29.4,28.84,WSW,238,0.0,0.0,81,0.00,,,0.00,0,LWC V2.10 B1813,2013-01-17 09:45:00,
2013-01-17 01:50:00,34.6,29.4,28.84,WSW,238,0.0,0.0,81,0.00,,,0.00,0,LWC V2.10 B1813,2013-01-17 09:50:00,
2013-01-17 01:55:00,34.8,29.9,28.84,WSW,238,0.0,0.0,82,0.00,,,0.00,0,LWC V2.10 B1813,2013-01-17 09:55:00,
2013-01-17 02:00:00,34.8,29.6,28.84,WSW,238,0.0,0.0,81,0.00,,,0.00,0,LWC V2.10 B1813,2013-01-17 10:00:00,
2013-01-17 02:05:00,34.9,29.7,28.84,WSW,238,0.0,0.0,81,0.00,,,0.00,0,LWC V2.10 B1813,2013-01-17 10:05:00,
2013-01-17 02:10:00,34.8,29.6,28.84,WSW,238,0.0,0.0,81,0.00,,,0.00,0,LWC V2.10 B1813,2013-01-17 10:10:00,
2013-01-17 02:15:00,34.7,29.8,28.84,WSW,238,0.0,0.0,82,0.00,,,0.00,0,LWC V2.10 B1813,2013-01-17 10:15:00,
2013-01-17 02:20:00,34.8,29.6,28.84,WSW,238,0.0,0.0,81,0.00,,,0.00,0,LWC V2.10 B1813,2013-01-17 10:20:00,
2013-01-17 02:25:00,34.9,30.0,28.84,WSW,238,0.0,0.0,82,0.00,,,0.00,0,LWC V2.10 B1813,2013-01-17 10:25:00,
2013-01-17 02:30:00,34.9,29.7,28.84,WSW,238,0.0,0.0,81,0.00,,,0.00,0,LWC V2.10 B1813,2013-01-17 10:30:00,
2013-01-17 02:35:00,34.9,29.4,28.84,WSW,238,0.0,0.0,80,0.00,,,0.00,0,LWC V2.10 B1813,2013-01-17 10:35:00,
2013-01-17 02:40:00,34.6,29.7,28.84,WSW,238,0.0,0.0,82,0.00,,,0.00,0,LWC V2.10 B1813,2013-01-17 10:40:00,
2013-01-17 02:45:00,34.5,29.6,28.84,WSW,238,0.0,0.0,82,0.00,,,0.00,0,LWC V2.10 B1813,2013-01-17 10:45:00,
2013-01-17 02:50:00,34.8,29.9,28.84,WSW,238,0.0,0.0,82,0.00,,,0.00,0,LWC V2.10 B1813,2013-01-17 10:50:00,
2013-01-17 02:55:00,34.5,29.6,28.84,WSW,238,0.0,0.0,82,0.00,,,0.00,0,LWC V2.10 B1813,2013-01-17 10:55:00,
2013-01-17 03:00:00,34.4,29.5,28.84,WSW,238,0.0,0.0,82,0.00,,,0.00,0,LWC V2.10 B1813,2013-01-17 11:00:00,
2013-01-17 03:05:00,34.3,29.4,28.84,WSW,238,0.0,0.0,82,0.00,,,0.00,0,LWC V2.10 B1813,2013-01-17 11:05:00,
2013-01-17 03:10:00,34.2,29.3,28.83,WSW,238,0.0,0.0,82,0.00,,,0.00,0,LWC V2.10 B1813,2013-01-17 11:10:00,
2013-01-17 03:15:00,34.3,29.4,28.83,WSW,238,0.0,0.0,82,0.00,,,0.00,0,LWC V2.10 B1813,2013-01-17 11:15:00,
2013-01-17 03:20:00,33.9,29.3,28.83,WSW,238,0.0,0.0,83,0.00,,,0.00,0,LWC V2.10 B1813,2013-01-17 11:20:00,
2013-01-17 03:25:00,34.0,29.4,28.83,WSW,238,0.0,0.0,83,0.00,,,0.00,0,LWC V2.10 B1813,2013-01-17 11:25:00,
2013-01-17 03:30:00,34.2,29.3,28.83,WSW,238,0.0,0.0,82,0.00,,,0.00,0,LWC V2.10 B1813,2013-01-17 11:30:00,
2013-01-17 03:35:00,34.1,29.5,28.83,WSW,238,0.0,0.0,83,0.00,,,0.00,0,LWC V2.10 B1813,2013-01-17 11:35:00,
2013-01-17 03:40:00,33.9,29.3,28.83,WSW,238,0.0,0.0,83,0.00,,,0.00,0,LWC V2.10 B1813,2013-01-17 11:40:00,
2013-01-17 03:45:00,33.6,29.0,28.83,WSW,238,0.0,0.0,83,0.00,,,0.00,0,LWC V2.10 B1813,2013-01-17 11:45:00,
2013-01-17 03:50:00,33.8,29.5,28.83,WSW,238,0.0,0.0,84,0.00,,,0.00,0,LWC V2.10 B1813,2013-01-17 11:50:00,
2013-01-17 03:55:00,33.7,29.1,28.83,WSW,238,0.0,0.0,83,0.00,,,0.00,0,LWC V2.10 B1813,2013-01-17 11:55:00,
2013-01-17 04:00:00,33.6,29.0,28.83,WSW,238,0.0,0.0,83,0.00,,,0.00,0,LWC V2.10 B1813,2013-01-17 12:00:00,
2013-01-17 04:05:00,33.7,29.4,28.83,WSW,238,0.0,0.0,84,0.00,,,0.00,0,LWC V2.10 B1813,2013-01-17 12:05:00,
2013-01-17 04:10:00,33.8,29.2,28.83,WSW,238,0.0,0.0,83,0.00,,,0.00,0,LWC V2.10 B1813,2013-01-17 12:10:00,
2013-01-17 04:15:00,34.1,29.5,28.83,WSW,238,0.0,0.0,83,0.00,,,0.00,0,LWC V2.10 B1813,2013-01-17 12:15:00,
2013-01-17 04:20:00,34.0,29.4,28.83,WSW,238,0.0,0.0,83,0.00,,,0.00,0,LWC V2.10 B1813,2013-01-17 12:20:00,
2013-01-17 04:25:00,34.1,29.5,28.82,WSW,238,0.0,0.0,83,0.00,,,0.00,0,LWC V2.10 B1813,2013-01-17 12:25:00,
2013-01-17 04:30:00,33.8,29.2,28.82,WSW,238,0.0,0.0,83,0.00,,,0.00,0,LWC V2.10 B1813,2013-01-17 12:30:00,
2013-01-17 04:35:00,33.8,28.9,28.82,WSW,238,0.0,0.0,82,0.00,,,0.00,0,LWC V2.10 B1813,2013-01-17 12:35:00,
2013-01-17 04:40:00,33.3,28.7,28.82,WSW,238,0.0,0.0,83,0.00,,,0.00,0,LWC V2.10 B1813,2013-01-17 12:40:00,
2013-01-17 04:45:00,33.5,29.2,28.82,WSW,238,0.0,0.0,84,0.00,,,0.00,0,LWC V2.10 B1813,2013-01-17 12:45:00,
2013-01-17 04:50:00,33.5,28.9,28.82,WSW,238,0.0,0.0,83,0.00,,,0.00,0,LWC V2.10 B1813,2013-01-17 12:50:00,
2013-01-17 04:55:00,33.4,28.8,28.82,WSW,238,0.0,0.0,83,0.00,,,0.00,0,LWC V2.10 B1813,2013-01-17 12:55:00,
2013-01-17 05:00:00,33.4,29.1,28.82,WSW,238,0.0,0.0,84,0.00,,,0.00,0,LWC V2.10 B1813,2013-01-17 13:00:00,
2013-01-17 05:05:00,33.7,29.1,28.82,WSW,238,0.0,1.0,83,0.00,,,0.00,0,LWC V2.10 B1813,2013-01-17 13:05:00,
2013-01-17 05:10:00,33.8,29.2,28.82,WSW,238,0.0,0.0,83,0.00,,,0.00,0,LWC V2.10 B1813,2013-01-17 13:10:00,
2013-01-17 05:15:00,33.7,29.1,28.82,WSW,238,0.0,0.0,83,0.00,,,0.00,0,LWC V2.10 B1813,2013-01-17 13:15:00,
2013-01-17 05:20:00,33.4,28.8,28.82,WSW,238,0.0,0.0,83,0.00,,,0.00,0,LWC V2.10 B1813,2013-01-17 13:20:00,
2013-01-17 05:25:00,33.4,28.8,28.82,WSW,238,0.0,0.0,83,0.00,,,0.00,0,LWC V2.10 B1813,2013-01-17 13:25:00,
2013-01-17 05:30:00,32.6,28.3,28.82,WSW,238,0.0,0.0,84,0.00,,,0.00,0,LWC V2.10 B1813,2013-01-17 13:30:00,
2013-01-17 05:35:00,33.0,28.7,28.82,WSW,238,0.0,0.0,84,0.00,,,0.00,0,LWC V2.10 B1813,2013-01-17 13:35:00,
2013-01-17 05:40:00,33.1,29.1,28.82,WSW,238,0.0,0.0,85,0.00,,,0.00,0,LWC V2.10 B1813,2013-01-17 13:40:00,
2013-01-17 05:45:00,33.5,29.2,28.82,WSW,238,0.0,0.0,84,0.00,,,0.00,0,LWC V2.10 B1813,2013-01-17 13:45:00,
2013-01-17 05:50:00,33.0,28.4,28.82,WSW,238,0.0,0.0,83,0.00,,,0.00,0,LWC V2.10 B1813,2013-01-17 13:50:00,
2013-01-17 05:55:00,33.0,29.0,28.82,WSW,238,0.0,0.0,85,0.00,,,0.00,0,LWC V2.10 B1813,2013-01-17 13:55:00,
2013-01-17 06:00:00,33.1,28.8,28.82,WSW,238,0.0,0.0,84,0.00,,,0.00,0,LWC V2.10 B1813,2013-01-17 14:00:00,
2013-01-17 06:05:00,33.0,28.7,28.82,WSW,238,0.0,0.0,84,0.00,,,0.00,0,LWC V2.10 B1813,2013-01-17 14:05:00,
2013-01-17 06:10:00,33.4,29.1,28.82,WSW,238,0.0,0.0,84,0.00,,,0.00,0,LWC V2.10 B1813,2013-01-17 14:10:00,
2013-01-17 06:15:00,32.7,28.1,28.82,WSW,238,0.0,0.0,83,0.00,,,0.00,0,LWC V2.10 B1813,2013-01-17 14:15:00,
2013-01-17 06:20:00,32.8,28.8,28.82,WSW,238,0.0,0.0,85,0.00,,,0.00,0,LWC V2.10 B1813,2013-01-17 14:20:00,
2013-01-17 06:25:00,33.0,29.0,28.82,WSW,238,0.0,0.0,85,0.00,,,0.00,0,LWC V2.10 B1813,2013-01-17 14:25:00,
2013-01-17 06:30:00,32.7,28.4,28.82,WSW,238,0.0,0.0,84,0.00,,,0.00,0,LWC V2.10 B1813,2013-01-17 14:30:00,
2013-01-17 06:35:00,32.9,28.9,28.82,WSW,238,0.0,0.0,85,0.00,,,0.00,0,LWC V2.10 B1813,2013-01-17 14:35:00,
2013-01-17 06:40:00,32.7,28.7,28.82,WSW,238,0.0,0.0,85,0.00,,,0.00,0,LWC V2.10 B1813,2013-01-17 14:40:00,
2013-01-17 06:45:00,32.4,28.4,28.82,WSW,238,0.0,0.0,85,0.00,,,0.00,0,LWC V2.10 B1813,2013-01-17 14:45:00,
2013-01-17 06:50:00,32.3,28.3,28.83,WSW,238,0.0,0.0,85,0.00,,,0.00,0,LWC V2.10 B1813,2013-01-17 14:50:00,
2013-01-17 06:55:00,32.1,28.4,28.83,WSW,238,0.0,0.0,86,0.00,,,0.00,0,LWC V2.10 B1813,2013-01-17 14:55:00,
2013-01-17 07:00:00,32.2,28.5,28.83,WSW,238,0.0,0.0,86,0.00,,,0.00,0,LWC V2.10 B1813,2013-01-17 15:00:00,
2013-01-17 07:05:00,32.6,28.6,28.83,WSW,238,0.0,0.0,85,0.00,,,0.00,0,LWC V2.10 B1813,2013-01-17 15:05:00,
2013-01-17 07:10:00,32.5,28.5,28.83,WSW,238,0.0,0.0,85,0.00,,,0.00,0,LWC V2.10 B1813,2013-01-17 15:10:00,
2013-01-17 07:15:00,32.6,28.6,28.83,WSW,238,0.0,0.0,85,0.00,,,0.00,7,LWC V2.10 B1813,2013-01-17 15:15:00,
2013-01-17 07:20:00,32.6,28.3,28.83,WSW,238,0.0,0.0,84,0.00,,,0.00,9,LWC V2.10 B1813,2013-01-17 15:20:00,
2013-01-17 07:25:00,32.4,28.4,28.83,WSW,238,0.0,0.0,85,0.00,,,0.00,12,LWC V2.10 B1813,2013-01-17 15:25:00,
2013-01-17 07:30:00,32.3,28.6,28.83,WSW,238,0.0,0.0,86,0.00,,,0.00,14,LWC V2.10 B1813,2013-01-17 15:30:00,
2013-01-17 07:35:00,32.8,29.1,28.84,WSW,238,0.0,0.0,86,0.00,,,0.00,18,LWC V2.10 B1813,2013-01-17 15:35:00,
2013-01-17 07:40:00,32.7,28.7,28.84,WSW,238,0.0,0.0,85,0.00,,,0.00,19,LWC V2.10 B1813,2013-01-17 15:40:00,
2013-01-17 07:45:00,32.9,29.2,28.84,WSW,238,0.0,0.0,86,0.00,,,0.00,21,LWC V2.10 B1813,2013-01-17 15:45:00,
2013-01-17 07:50:00,33.4,29.4,28.84,WSW,238,0.0,0.0,85,0.00,,,0.00,23,LWC V2.10 B1813,2013-01-17 15:50:00,
2013-01-17 07:55:00,34.0,29.7,28.84,WSW,238,0.0,0.0,84,0.00,,,0.00,23,LWC V2.10 B1813,2013-01-17 15:55:00,
2013-01-17 08:00:00,34.7,30.4,28.84,WSW,238,0.0,0.0,84,0.00,,,0.00,26,LWC V2.10 B1813,2013-01-17 16:00:00,
2013-01-17 08:05:00,35.1,30.5,28.84,WSW,238,0.0,0.0,83,0.00,,,0.00,26,LWC V2.10 B1813,2013-01-17 16:05:00,
2013-01-17 08:10:00,35.6,30.7,28.84,WSW,238,0.0,0.0,82,0.00,,,0.00,28,LWC V2.10 B1813,2013-01-17 16:10:00,
2013-01-17 08:15:00,36.6,31.0,28.84,WSW,238,0.0,0.0,80,0.00,,,0.00,49,LWC V2.10 B1813,2013-01-17 16:15:00,
2013-01-17 08:20:00,37.2,31.0,28.84,WSW,238,0.0,0.0,78,0.00,,,0.00,156,LWC V2.10 B1813,2013-01-17 16:20:00,
2013-01-17 08:25:00,38.0,31.4,28.84,WSW,238,0.0,0.0,77,0.00,,,0.00,167,LWC V2.10 B1813,2013-01-17 16:25:00,
2013-01-17 08:30:00,38.5,31.6,28.84,WSW,238,0.0,0.0,76,0.00,,,0.00,172,LWC V2.10 B1813,2013-01-17 16:30:00,
2013-01-17 08:35:00,39.2,32.0,28.85,WSW,238,0.0,0.0,75,0.00,,,0.00,190,LWC V2.10 B1813,2013-01-17 16:35:00,
2013-01-17 08:40:00,39.7,32.1,28.85,WSW,238,0.0,0.0,74,0.00,,,0.00,223,LWC V2.10 B1813,2013-01-17 16:40:00,
2013-01-17 08:45:00,40.7,32.7,28.85,WSW,238,0.0,0.0,73,0.00,,,0.00,234,LWC V2.10 B1813,2013-01-17 16:45:00,
2013-01-17 08:50:00,41.4,32.4,28.85,WSW,238,0.0,0.0,70,0.00,,,0.00,267,LWC V2.10 B1813,2013-01-17 16:50:00,
2013-01-17 08:55:00,42.5,33.4,28.85,WSW,238,0.0,0.0,70,0.00,,,0.00,285,LWC V2.10 B1813,2013-01-17 16:55:00,
2013-01-17 09:00:00,43.9,34.4,28.85,WSW,238,0.0,0.0,69,0.00,,,0.00,299,LWC V2.10 B1813,2013-01-17 17:00:00,
2013-01-17 09:05:00,45.1,34.4,28.85,WSW,238,0.0,0.0,66,0.00,,,0.00,309,LWC V2.10 B1813,2013-01-17 17:05:00,
2013-01-17 09:10:00,45.5,34.4,28.85,WSW,238,0.0,0.0,65,0.00,,,0.00,323,LWC V2.10 B1813,2013-01-17 17:10:00,
2013-01-17 09:15:00,46.1,35.0,28.85,WSW,238,0.0,0.0,65,0.00,,,0.00,341,LWC V2.10 B1813,2013-01-17 17:15:00,
2013-01-17 09:20:00,46.7,36.0,28.85,WSW,238,0.0,0.0,66,0.00,,,0.00,353,LWC V2.10 B1813,2013-01-17 17:20:00,
2013-01-17 09:25:00,47.2,35.7,28.85,WSW,238,0.0,0.0,64,0.00,,,0.00,366,LWC V2.10 B1813,2013-01-17 17:25:00,
2013-01-17 09:30:00,47.8,35.8,28.85,WSW,238,0.0,1.0,63,0.00,,,0.00,371,LWC V2.10 B1813,2013-01-17 17:30:00,
2013-01-17 09:35:00,48.2,36.2,28.85,SE,128,1.0,3.0,63,0.00,,,0.00,392,LWC V2.10 B1813,2013-01-17 17:35:00,
2013-01-17 09:40:00,48.3,35.9,28.85,SSE,156,2.0,3.0,62,0.00,,,0.00,406,LWC V2.10 B1813,2013-01-17 17:40:00,
2013-01-17 09:45:00,48.4,36.0,28.85,ESE,123,1.0,3.0,62,0.00,,,0.00,417,LWC V2.10 B1813,2013-01-17 17:45:00,
2013-01-17 09:50:00,48.8,37.6,28.85,SSE,158,0.0,1.0,65,0.00,,,0.00,425,LWC V2.10 B1813,2013-01-17 17:50:00,
2013-01-17 09:55:00,49.0,36.6,28.85,SSE,158,1.0,2.0,62,0.00,,,0.00,436,LWC V2.10 B1813,2013-01-17 17:55:00,
2013-01-17 10:00:00,49.4,36.1,28.85,ESE,123,2.0,3.0,60,0.00,,,0.00,446,LWC V2.10 B1813,2013-01-17 18:00:00,
2013-01-17 10:05:00,49.8,36.5,28.85,SSE,148,1.0,3.0,60,0.00,,,0.00,457,LWC V2.10 B1813,2013-01-17 18:05:00,
2013-01-17 10:10:00,50.3,37.4,28.85,SSE,148,1.0,1.0,61,0.00,,,0.00,468,LWC V2.10 B1813,2013-01-17 18:10:00,
2013-01-17 10:15:00,51.0,38.0,28.85,SSE,148,2.0,2.0,61,0.00,,,0.00,478,LWC V2.10 B1813,2013-01-17 18:15:00,
2013-01-17 10:20:00,51.2,36.9,28.85,SE,125,0.0,4.0,58,0.00,,,0.00,487,LWC V2.10 B1813,2013-01-17 18:20:00,
2013-01-17 10:25:00,51.7,38.3,28.84,SE,142,2.0,3.0,60,0.00,,,0.00,497,LWC V2.10 B1813,2013-01-17 18:25:00,
2013-01-17 10:30:00,52.1,39.5,28.84,SE,130,2.0,2.0,62,0.00,,,0.00,506,LWC V2.10 B1813,2013-01-17 18:30:00,
2013-01-17 10:35:00,52.4,38.5,28.84,SE,129,2.0,3.0,59,0.00,,,0.00,515,LWC V2.10 B1813,2013-01-17 18:35:00,
2013-01-17 10:40:00,53.0,38.2,28.83,ESE,111,1.0,5.0,57,0.00,,,0.00,513,LWC V2.10 B1813,2013-01-17 18:40:00,
2013-01-17 10:45:00,53.3,38.5,28.83,SE,143,1.0,3.0,57,0.00,,,0.00,534,LWC V2.10 B1813,2013-01-17 18:45:00,
2013-01-17 10:50:00,53.5,38.6,28.83,SE,132,0.0,2.0,57,0.00,,,0.00,533,LWC V2.10 B1813,2013-01-17 18:50:00,
2013-01-17 10:55:00,54.8,39.4,28.83,ESE,117,2.0,3.0,56,0.00,,,0.00,541,LWC V2.10 B1813,2013-01-17 18:55:00,
2013-01-17 11:00:00,55.1,38.3,28.82,ESE,110,0.0,5.0,53,0.00,,,0.00,559,LWC V2.10 B1813,2013-01-17 19:00:00,
2013-01-17 11:05:00,55.9,38.0,28.82,ENE,59,2.0,4.0,51,0.00,,,0.00,520,LWC V2.10 B1813,2013-01-17 19:05:00,
2013-01-17 11:10:00,56.4,40.0,28.82,NE,54,0.0,3.0,54,0.00,,,0.00,575,LWC V2.10 B1813,2013-01-17 19:10:00,
2013-01-17 11:15:00,56.9,39.0,28.82,East,95,5.0,5.0,51,0.00,,,0.00,475,LWC V2.10 B1813,2013-01-17 19:15:00,
2013-01-17 11:20:00,57.2,38.2,28.82,East,85,2.0,4.0,49,0.00,,,0.00,587,LWC V2.10 B1813,2013-01-17 19:20:00,
2013-01-17 11:25:00,57.5,38.0,28.81,NNE,32,1.0,4.0,48,0.00,,,0.00,589,LWC V2.10 B1813,2013-01-17 19:25:00,
2013-01-17 11:30:00,58.1,38.0,28.81,East,101,0.0,8.0,47,0.00,,,0.00,592,LWC V2.10 B1813,2013-01-17 19:30:00,
2013-01-17 11:35:00,58.8,38.6,28.81,ENE,61,5.0,5.0,47,0.00,,,0.00,596,LWC V2.10 B1813,2013-01-17 19:35:00,
2013-01-17 11:40:00,58.9,37.6,28.80,East,83,3.0,7.0,45,0.00,,,0.00,385,LWC V2.10 B1813,2013-01-17 19:40:00,
2013-01-17 11:45:00,59.1,37.8,28.80,NE,45,0.0,4.0,45,0.00,,,0.00,290,LWC V2.10 B1813,2013-01-17 19:45:00,
2013-01-17 11:50:00,59.3,38.0,28.80,East,96,5.0,6.0,45,0.00,,,0.00,577,LWC V2.10 B1813,2013-01-17 19:50:00,
2013-01-17 11:55:00,59.4,37.5,28.79,East,92,6.0,7.0,44,0.00,,,0.00,580,LWC V2.10 B1813,2013-01-17 19:55:00,
2013-01-17 12:00:00,59.6,37.7,28.79,East,99,3.0,7.0,44,0.00,,,0.00,575,LWC V2.10 B1813,2013-01-17 20:00:00,
2013-01-17 12:05:00,60.2,37.0,28.79,ESE,112,4.0,4.0,42,0.00,,,0.00,550,LWC V2.10 B1813,2013-01-17 20:05:00,
2013-01-17 12:10:00,60.3,36.5,28.78,ENE,57,7.0,7.0,41,0.00,,,0.00,555,LWC V2.10 B1813,2013-01-17 20:10:00,
2013-01-17 12:15:00,60.9,37.7,28.78,NE,50,2.0,6.0,42,0.00,,,0.00,603,LWC V2.10 B1813,2013-01-17 20:15:00,
2013-01-17 12:20:00,61.2,37.9,28.78,ESE,105,4.0,10.0,42,0.00,,,0.00,552,LWC V2.10 B1813,2013-01-17 20:20:00,
2013-01-17 12:25:00,61.8,37.8,28.78,NE,36,3.0,4.0,41,0.00,,,0.00,577,LWC V2.10 B1813,2013-01-17 20:25:00,
2013-01-17 12:30:00,61.9,36.7,28.77,NNE,27,5.0,6.0,39,0.00,,,0.00,589,LWC V2.10 B1813,2013-01-17 20:30:00,
2013-01-17 12:35:00,62.2,36.9,28.77,ENE,63,1.0,5.0,39,0.00,,,0.00,417,LWC V2.10 B1813,2013-01-17 20:35:00,
2013-01-17 12:40:00,63.0,37.0,28.77,ENE,69,1.0,2.0,38,0.00,,,0.00,438,LWC V2.10 B1813,2013-01-17 20:40:00,
2013-01-17 12:45:00,63.6,36.2,28.77,North,355,4.0,7.0,36,0.00,,,0.00,295,LWC V2.10 B1813,2013-01-17 20:45:00,
2013-01-17 12:50:00,63.5,37.4,28.77,ESE,119,2.0,4.0,38,0.00,,,0.00,418,LWC V2.10 B1813,2013-01-17 20:50:00,
2013-01-17 12:55:00,63.6,38.2,28.76,East,97,3.0,6.0,39,0.00,,,0.00,490,LWC V2.10 B1813,2013-01-17 20:55:00,
2013-01-17 13:00:00,63.5,36.8,28.76,NNE,28,3.0,3.0,37,0.00,,,0.00,350,LWC V2.10 B1813,2013-01-17 21:00:00,
2013-01-17 13:05:00,63.6,37.5,28.76,ENE,73,4.0,5.0,38,0.00,,,0.00,592,LWC V2.10 B1813,2013-01-17 21:05:00,
2013-01-17 13:10:00,64.4,37.6,28.76,NE,42,1.0,7.0,37,0.00,,,0.00,529,LWC V2.10 B1813,2013-01-17 21:10:00,
2013-01-17 13:15:00,65.2,36.1,28.75,NE,51,0.0,2.0,34,0.00,,,0.00,450,LWC V2.10 B1813,2013-01-17 21:15:00,
2013-01-17 13:20:00,65.6,36.5,28.75,ENE,59,0.0,4.0,34,0.00,,,0.00,575,LWC V2.10 B1813,2013-01-17 21:20:00,
2013-01-17 13:25:00,65.9,36.7,28.75,East,95,3.0,6.0,34,0.00,,,0.00,508,LWC V2.10 B1813,2013-01-17 21:25:00,
2013-01-17 13:30:00,65.8,36.6,28.75,NNE,19,0.0,5.0,34,0.00,,,0.00,272,LWC V2.10 B1813,2013-01-17 21:30:00,
2013-01-17 13:35:00,65.9,36.7,28.75,ENE,58,1.0,3.0,34,0.00,,,0.00,269,LWC V2.10 B1813,2013-01-17 21:35:00,
2013-01-17 13:40:00,66.1,35.4,28.75,ENE,67,5.0,7.0,32,0.00,,,0.00,381,LWC V2.10 B1813,2013-01-17 21:40:00,
2013-01-17 13:45:00,67.0,35.4,28.75,ENE,59,0.0,1.0,31,0.00,,,0.00,482,LWC V2.10 B1813,2013-01-17 21:45:00,
2013-01-17 13:50:00,67.0,36.9,28.75,East,91,0.0,2.0,33,0.00,,,0.00,536,LWC V2.10 B1813,2013-01-17 21:50:00,
2013-01-17 13:55:00,67.2,33.9,28.75,SSW,197,1.0,2.0,29,0.00,,,0.00,527,LWC V2.10 B1813,2013-01-17 21:55:00,
2013-01-17 14:00:00,67.8,36.9,28.75,NE,44,2.0,4.0,32,0.00,,,0.00,519,LWC V2.10 B1813,2013-01-17 22:00:00,
2013-01-17 14:05:00,67.7,34.3,28.75,ENE,63,5.0,5.0,29,0.00,,,0.00,512,LWC V2.10 B1813,2013-01-17 22:05:00,
2013-01-17 14:10:00,67.4,34.0,28.74,ENE,77,1.0,7.0,29,0.00,,,0.00,322,LWC V2.10 B1813,2013-01-17 22:10:00,
2013-01-17 14:15:00,68.1,34.6,28.74,WSW,237,2.0,4.0,29,0.00,,,0.00,336,LWC V2.10 B1813,2013-01-17 22:15:00,
2013-01-17 14:20:00,68.5,32.3,28.74,WNW,300,0.0,3.0,26,0.00,,,0.00,264,LWC V2.10 B1813,2013-01-17 22:20:00,
2013-01-17 14:25:00,68.5,34.1,28.74,WSW,245,0.0,5.0,28,0.00,,,0.00,408,LWC V2.10 B1813,2013-01-17 22:25:00,
2013-01-17 14:30:00,68.4,34.0,28.74,ENE,72,1.0,3.0,28,0.00,,,0.00,454,LWC V2.10 B1813,2013-01-17 22:30:00,
2013-01-17 14:35:00,68.5,34.1,28.74,East,96,2.0,2.0,28,0.00,,,0.00,285,LWC V2.10 B1813,2013-01-17 22:35:00,
2013-01-17 14:40:00,68.3,33.9,28.74,ESE,120,0.0,2.0,28,0.00,,,0.00,206,LWC V2.10 B1813,2013-01-17 22:40:00,
2013-01-17 14:45:00,68.4,34.0,28.74,East,92,3.0,5.0,28,0.00,,,0.00,172,LWC V2.10 B1813,2013-01-17 22:45:00,
2013-01-17 14:50:00,68.5,35.0,28.74,ESE,112,0.0,2.0,29,0.00,,,0.00,169,LWC V2.10 B1813,2013-01-17 22:50:00,
2013-01-17 14:55:00,68.7,34.3,28.74,ESE,113,2.0,2.0,28,0.00,,,0.00,174,LWC V2.10 B1813,2013-01-17 22:55:00,
2013-01-17 15:00:00,68.5,34.1,28.74,ENE,73,1.0,5.0,28,0.00,,,0.00,127,LWC V2.10 B1813,2013-01-17 23:00:00,
2013-01-17 15:05:00,68.4,36.6,28.74,NE,36,2.0,2.0,31,0.00,,,0.00,353,LWC V2.10 B1813,2013-01-17 23:05:00,
2013-01-17 15:10:00,68.6,35.9,28.74,NE,34,0.0,1.0,30,0.00,,,0.00,359,LWC V2.10 B1813,2013-01-17 23:10:00,
2013-01-17 15:15:00,68.7,36.8,28.74,NNE,32,0.0,3.0,31,0.00,,,0.00,345,LWC V2.10 B1813,2013-01-17 23:15:00,
2013-01-17 15:20:00,68.7,36.0,28.74,SE,135,0.0,2.0,30,0.00,,,0.00,330,LWC V2.10 B1813,2013-01-17 23:20:00,
2013-01-17 15:25:00,68.5,35.8,28.74,WSW,254,1.0,3.0,30,0.00,,,0.00,316,LWC V2.10 B1813,2013-01-17 23:25:00,
2013-01-17 15:30:00,68.2,35.6,28.74,SW,232,2.0,2.0,30,0.00,,,0.00,302,LWC V2.10 B1813,2013-01-17 23:30:00,
2013-01-17 15:35:00,67.8,34.4,28.74,SE,127,2.0,2.0,29,0.00,,,0.00,290,LWC V2.10 B1813,2013-01-17 23:35:00,
2013-01-17 15:40:00,68.0,34.6,28.74,East,86,0.0,3.0,29,0.00,,,0.00,274,LWC V2.10 B1813,2013-01-17 23:40:00,
2013-01-17 15:45:00,68.1,34.6,28.74,ENE,76,0.0,1.0,29,0.00,,,0.00,258,LWC V2.10 B1813,2013-01-17 23:45:00,
2013-01-17 15:50:00,68.1,34.6,28.74,WSW,250,0.0,3.0,29,0.00,,,0.00,237,LWC V2.10 B1813,2013-01-17 23:50:00,
2013-01-17 15:55:00,68.3,34.8,28.74,West,267,1.0,2.0,29,0.00,,,0.00,214,LWC V2.10 B1813,2013-01-17 23:55:00,
2013-01-17 16:00:00,67.9,34.5,28.74,WSW,252,0.0,3.0,29,0.00,,,0.00,195,LWC V2.10 B1813,2013-01-18 00:00:00,
2013-01-17 16:05:00,67.3,33.1,28.74,SSW,200,1.0,2.0,28,0.00,,,0.00,181,LWC V2.10 B1813,2013-01-18 00:05:00,
2013-01-17 16:10:00,67.0,33.7,28.74,WSW,258,0.0,1.0,29,0.00,,,0.00,169,LWC V2.10 B1813,2013-01-18 00:10:00,
2013-01-17 16:15:00,65.7,34.2,28.74,SSE,149,0.0,0.0,31,0.00,,,0.00,146,LWC V2.10 B1813,2013-01-18 00:15:00,
2013-01-17 16:20:00,65.3,34.7,28.74,SSE,149,1.0,1.0,32,0.00,,,0.00,109,LWC V2.10 B1813,2013-01-18 00:20:00,
2013-01-17 16:25:00,65.3,34.7,28.74,SSE,149,0.0,0.0,32,0.00,,,0.00,54,LWC V2.10 B1813,2013-01-18 00:25:00,
2013-01-17 16:30:00,64.9,33.5,28.74,SW,225,1.0,1.0,31,0.00,,,0.00,26,LWC V2.10 B1813,2013-01-18 00:30:00,
2013-01-17 16:35:00,64.6,34.8,28.74,SW,225,0.0,1.0,33,0.00,,,0.00,26,LWC V2.10 B1813,2013-01-18 00:35:00,
2013-01-17 16:40:00,64.0,34.3,28.74,SW,225,0.0,1.0,33,0.00,,,0.00,25,LWC V2.10 B1813,2013-01-18 00:40:00,
2013-01-17 16:45:00,63.2,35.1,28.74,SW,225,0.0,0.0,35,0.00,,,0.00,23,LWC V2.10 B1813,2013-01-18 00:45:00,
2013-01-17 16:50:00,62.5,35.2,28.74,SW,225,0.0,0.0,36,0.00,,,0.00,21,LWC V2.10 B1813,2013-01-18 00:50:00,
2013-01-17 16:55:00,61.4,36.2,28.74,SW,225,0.0,0.0,39,0.00,,,0.00,16,LWC V2.10 B1813,2013-01-18 00:55:00,
2013-01-17 17:00:00,59.5,38.1,28.74,SW,225,0.0,0.0,45,0.00,,,0.00,12,LWC V2.10 B1813,2013-01-18 01:00:00,
2013-01-17 17:05:00,57.4,38.4,28.74,SW,225,0.0,0.0,49,0.00,,,0.00,7,LWC V2.10 B1813,2013-01-18 01:05:00,
2013-01-17 17:10:00,55.8,37.9,28.74,NNW,327,0.0,0.0,51,0.00,,,0.00,5,LWC V2.10 B1813,2013-01-18 01:10:00,
2013-01-17 17:15:00,53.8,37.1,28.74,NNW,327,0.0,0.0,53,0.00,,,0.00,0,LWC V2.10 B1813,2013-01-18 01:15:00,
2013-01-17 17:20:00,52.4,36.7,28.75,NNW,327,0.0,0.0,55,0.00,,,0.00,0,LWC V2.10 B1813,2013-01-18 01:20:00,
2013-01-17 17:25:00,52.4,36.2,28.75,NNW,327,0.0,0.0,54,0.00,,,0.00,0,LWC V2.10 B1813,2013-01-18 01:25:00,
2013-01-17 17:30:00,52.2,36.1,28.75,NW,321,0.0,0.0,54,0.00,,,0.00,0,LWC V2.10 B1813,2013-01-18 01:30:00,
2013-01-17 17:36:00,51.4,36.2,28.75,NW,321,0.0,0.0,56,0.00,,,0.00,0,LWC V2.10 B1813,2013-01-18 01:36:00,
2013-01-17 17:42:00,51.3,35.7,28.75,NW,321,0.0,0.0,55,0.00,,,0.00,0,LWC V2.10 B1813,2013-01-18 01:42:00,
2013-01-17 17:47:00,51.1,35.0,28.75,NW,321,0.0,0.0,54,0.00,,,0.00,0,LWC V2.10 B1813,2013-01-18 01:47:00,
2013-01-17 17:52:00,50.4,34.8,28.75,NW,321,0.0,1.0,55,0.00,,,0.00,0,LWC V2.10 B1813,2013-01-18 01:52:00,
2013-01-17 17:57:00,50.4,34.8,28.75,NW,321,0.0,0.0,55,0.00,,,0.00,0,LWC V2.10 B1813,2013-01-18 01:57:00,
2013-01-17 18:02:00,49.4,34.4,28.75,NW,321,0.0,0.0,56,0.00,,,0.00,0,LWC V2.10 B1813,2013-01-18 02:02:00,
2013-01-17 18:07:00,48.1,34.0,28.75,NW,321,0.0,0.0,58,0.00,,,0.00,0,LWC V2.10 B1813,2013-01-18 02:07:00,
2013-01-17 18:12:00,49.2,33.7,28.75,NW,321,0.0,0.0,55,0.00,,,0.00,0,LWC V2.10 B1813,2013-01-18 02:12:00,
2013-01-17 18:17:00,48.5,33.5,28.75,NW,321,0.0,0.0,56,0.00,,,0.00,0,LWC V2.10 B1813,2013-01-18 02:17:00,
2013-01-17 18:22:00,48.5,33.5,28.76,NW,321,0.0,0.0,56,0.00,,,0.00,0,LWC V2.10 B1813,2013-01-18 02:22:00,
2013-01-17 18:27:00,48.5,33.1,28.75,NW,321,0.0,0.0,55,0.00,,,0.00,0,LWC V2.10 B1813,2013-01-18 02:27:00,
2013-01-17 18:32:00,48.3,32.9,28.76,NW,321,0.0,0.0,55,0.00,,,0.00,0,LWC V2.10 B1813,2013-01-18 02:32:00,
2013-01-17 18:37:00,47.9,32.5,28.76,NW,321,0.0,0.0,55,0.00,,,0.00,0,LWC V2.10 B1813,2013-01-18 02:37:00,
2013-01-17 18:42:00,47.4,32.5,28.76,NW,321,0.0,0.0,56,0.00,,,0.00,0,LWC V2.10 B1813,2013-01-18 02:42:00,
2013-01-17 18:47:00,47.4,32.5,28.76,NW,321,0.0,0.0,56,0.00,,,0.00,0,LWC V2.10 B1813,2013-01-18 02:47:00,
2013-01-17 18:52:00,47.8,32.4,28.76,NW,321,0.0,0.0,55,0.00,,,0.00,0,LWC V2.10 B1813,2013-01-18 02:52:00,
2013-01-17 18:57:00,49.3,31.9,28.76,NW,321,0.0,0.0,51,0.00,,,0.00,0,LWC V2.10 B1813,2013-01-18 02:57:00,
2013-01-17 19:02:00,49.3,31.0,28.76,NW,321,0.0,0.0,49,0.00,,,0.00,0,LWC V2.10 B1813,2013-01-18 03:02:00,
2013-01-17 19:07:00,49.9,31.0,28.76,NW,321,0.0,0.0,48,0.00,,,0.00,0,LWC V2.10 B1813,2013-01-18 03:07:00,
2013-01-17 19:12:00,49.6,30.7,28.76,NW,321,0.0,0.0,48,0.00,,,0.00,0,LWC V2.10 B1813,2013-01-18 03:12:00,
2013-01-17 19:17:00,49.0,30.7,28.76,NW,321,0.0,0.0,49,0.00,,,0.00,0,LWC V2.10 B1813,2013-01-18 03:17:00,
2013-01-17 19:22:00,48.8,31.0,28.76,NW,321,0.0,0.0,50,0.00,,,0.00,0,LWC V2.10 B1813,2013-01-18 03:22:00,
2013-01-17 19:27:00,49.0,30.7,28.77,NW,321,0.0,0.0,49,0.00,,,0.00,0,LWC V2.10 B1813,2013-01-18 03:27:00,
2013-01-17 19:32:00,48.3,31.0,28.77,NW,321,0.0,0.0,51,0.00,,,0.00,0,LWC V2.10 B1813,2013-01-18 03:32:00,
2013-01-17 19:37:00,46.7,31.4,28.77,NW,321,0.0,0.0,55,0.00,,,0.00,0,LWC V2.10 B1813,2013-01-18 03:37:00,
2013-01-17 19:42:00,46.1,31.3,28.77,NW,321,0.0,0.0,56,0.00,,,0.00,0,LWC V2.10 B1813,2013-01-18 03:42:00,
2013-01-17 19:47:00,46.2,31.4,28.77,NW,321,0.0,0.0,56,0.00,,,0.00,0,LWC V2.10 B1813,2013-01-18 03:47:00,
2013-01-17 19:52:00,45.8,30.6,28.77,NW,321,0.0,0.0,55,0.00,,,0.00,0,LWC V2.10 B1813,2013-01-18 03:52:00,
2013-01-17 19:57:00,44.0,30.6,28.77,NW,321,0.0,0.0,59,0.00,,,0.00,0,LWC V2.10 B1813,2013-01-18 03:57:00,
2013-01-17 20:02:00,43.8,30.4,28.77,NW,321,0.0,0.0,59,0.00,,,0.00,0,LWC V2.10 B1813,2013-01-18 04:02:00,
2013-01-17 20:07:00,44.7,30.8,28.77,NW,321,0.0,0.0,58,0.00,,,0.00,0,LWC V2.10 B1813,2013-01-18 04:07:00,
2013-01-17 20:12:00,43.8,30.4,28.77,NW,321,0.0,0.0,59,0.00,,,0.00,0,LWC V2.10 B1813,2013-01-18 04:12:00,
2013-01-17 20:17:00,43.5,30.1,28.77,NW,321,0.0,0.0,59,0.00,,,0.00,0,LWC V2.10 B1813,2013-01-18 04:17:00,
2013-01-17 20:22:00,43.6,30.2,28.77,NW,321,0.0,0.0,59,0.00,,,0.00,0,LWC V2.10 B1813,2013-01-18 04:22:00,
2013-01-17 20:27:00,43.1,30.2,28.77,NW,321,0.0,0.0,60,0.00,,,0.00,0,LWC V2.10 B1813,2013-01-18 04:27:00,
2013-01-17 20:32:00,43.1,30.2,28.77,NW,321,0.0,0.0,60,0.00,,,0.00,0,LWC V2.10 B1813,2013-01-18 04:32:00,
2013-01-17 20:37:00,42.4,29.9,28.77,NW,321,0.0,0.0,61,0.00,,,0.00,0,LWC V2.10 B1813,2013-01-18 04:37:00,
2013-01-17 20:42:00,42.3,30.2,28.77,NW,321,0.0,1.0,62,0.00,,,0.00,0,LWC V2.10 B1813,2013-01-18 04:42:00,
2013-01-17 20:47:00,42.5,30.0,28.78,NW,321,0.0,0.0,61,0.00,,,0.00,0,LWC V2.10 B1813,2013-01-18 04:47:00,
2013-01-17 20:52:00,42.0,29.9,28.78,NW,321,0.0,0.0,62,0.00,,,0.00,0,LWC V2.10 B1813,2013-01-18 04:52:00,
2013-01-17 20:57:00,42.1,30.0,28.78,NW,321,0.0,0.0,62,0.00,,,0.00,0,LWC V2.10 B1813,2013-01-18 04:57:00,
2013-01-17 21:01:00,41.1,29.9,28.78,NW,321,0.0,0.0,64,0.00,,,0.00,0,LWC V2.10 B1813,2013-01-18 05:01:00,
2013-01-17 21:04:00,41.0,30.1,28.78,NW,321,0.0,0.0,65,0.00,,,0.00,0,LWC V2.10 B1813,2013-01-18 05:04:00,
2013-01-17 21:09:00,41.4,30.1,28.78,NW,321,0.0,0.0,64,0.00,,,0.00,0,LWC V2.10 B1813,2013-01-18 05:09:00,
2013-01-17 21:14:00,40.9,29.7,28.78,NW,321,0.0,1.0,64,0.00,,,0.00,0,LWC V2.10 B1813,2013-01-18 05:14:00,
2013-01-17 21:19:00,41.3,30.1,28.78,NW,321,0.0,0.0,64,0.00,,,0.00,0,LWC V2.10 B1813,2013-01-18 05:19:00,
2013-01-17 21:24:00,41.2,30.0,28.78,NW,321,0.0,0.0,64,0.00,,,0.00,0,LWC V2.10 B1813,2013-01-18 05:24:00,
2013-01-17 21:29:00,41.1,29.9,28.78,WSW,253,0.0,1.0,64,0.00,,,0.00,0,LWC V2.10 B1813,2013-01-18 05:29:00,
2013-01-17 21:34:00,41.0,29.8,28.78,WSW,253,0.0,0.0,64,0.00,,,0.00,0,LWC V2.10 B1813,2013-01-18 05:34:00,
2013-01-17 21:39:00,41.3,30.1,28.78,WSW,253,0.0,0.0,64,0.00,,,0.00,0,LWC V2.10 B1813,2013-01-18 05:39:00,
2013-01-17 21:44:00,40.9,29.7,28.78,WSW,253,0.0,0.0,64,0.00,,,0.00,0,LWC V2.10 B1813,2013-01-18 05:44:00,
2013-01-17 21:49:00,40.6,29.8,28.78,WSW,253,0.0,0.0,65,0.00,,,0.00,0,LWC V2.10 B1813,2013-01-18 05:49:00,
2013-01-17 21:54:00,41.0,29.8,28.78,WSW,253,0.0,0.0,64,0.00,,,0.00,0,LWC V2.10 B1813,2013-01-18 05:54:00,
2013-01-17 21:59:00,40.6,29.8,28.78,WSW,253,0.0,0.0,65,0.00,,,0.00,0,LWC V2.10 B1813,2013-01-18 05:59:00,
2013-01-17 22:04:00,39.8,29.8,28.78,WSW,253,0.0,0.0,67,0.00,,,0.00,0,LWC V2.10 B1813,2013-01-18 06:04:00,
2013-01-17 22:09:00,40.3,30.2,28.78,WSW,253,0.0,0.0,67,0.00,,,0.00,0,LWC V2.10 B1813,2013-01-18 06:09:00,
2013-01-17 22:10:00,40.2,30.5,28.77,WSW,253,0.0,0.0,68,0.00,,,0.00,0,LWC V2.10 B1813,2013-01-18 06:10:00,
2013-01-17 22:14:00,40.1,30.0,28.78,WSW,253,0.0,0.0,67,0.00,,,0.00,0,LWC V2.10 B1813,2013-01-18 06:14:00,
2013-01-17 22:20:00,39.9,29.8,28.78,WSW,253,0.0,0.0,67,0.00,,,0.00,0,LWC V2.10 B1813,2013-01-18 06:20:00,
2013-01-17 22:30:00,39.7,29.8,28.78,WSW,253,0.0,0.0,67,0.00,,,0.00,0,LWC V2.10 B1813,2013-01-18 06:30:00,
2013-01-17 22:40:00,39.6,29.8,28.78,WSW,253,0.0,0.0,68,0.00,,,0.00,0,LWC V2.10 B1813,2013-01-18 06:40:00,
2013-01-17 22:50:00,39.5,29.8,28.78,WSW,253,0.0,0.0,68,0.00,,,0.00,0,LWC V2.10 B1813,2013-01-18 06:50:00,
2013-01-17 23:00:00,39.3,29.8,28.78,WSW,253,0.0,0.0,68,0.00,,,0.00,0,LWC V2.10 B1813,2013-01-18 07:00:00,
2013-01-17 23:10:00,39.2,29.8,28.78,WSW,253,0.0,0.0,69,0.00,,,0.00,0,LWC V2.10 B1813,2013-01-18 07:10:00,
2013-01-17 23:20:00,39.1,29.7,28.78,WSW,253,0.0,0.0,69,0.00,,,0.00,0,LWC V2.10 B1813,2013-01-18 07:20:00,
2013-01-17 23:30:00,38.9,29.7,28.78,WSW,253,0.0,0.0,70,0.00,,,0.00,0,LWC V2.10 B1813,2013-01-18 07:30:00,
2013-01-17 23:40:00,38.8,29.7,28.78,WSW,253,0.0,0.0,70,0.00,,,0.00,0,LWC V2.10 B1813,2013-01-18 07:40:00,
2013-01-17 23:50:00,38.6,29.7,28.78,WSW,253,0.0,0.0,70,0.00,,,0.00,0,LWC V2.10 B1813,2013-01-18 07:50:00,